createdAt,value
2022-08-17T00:00:43.429Z,29.42
2022-08-17T00:03:39.134Z,31.15
2022-08-17T00:06:28.551Z,27.17
2022-08-17T00:09:18.792Z,24.67
2022-08-17T00:12:41.176Z,26.33
2022-08-17T00:15:13.421Z,24.40
2022-08-17T00:17:58.930Z,28.80
2022-08-17T00:20:45.152Z,26.70
2022-08-17T00:23:30.631Z,26.80
2022-08-17T00:26:43.415Z,25.95
2022-08-17T00:29:22.536Z,25.02
2022-08-17T00:33:13.959Z,22.70
2022-08-17T00:35:17.685Z,27.63
2022-08-17T00:38:05.060Z,26.67
2022-08-17T00:41:00.074Z,27.65
2022-08-17T00:43:58.186Z,29.70
2022-08-17T00:46:44.566Z,27.88
2022-08-17T00:49:31.331Z,23.27
2022-08-17T00:52:23.618Z,26.40
2022-08-17T00:55:10.313Z,27.00
2022-08-17T00:58:01.044Z,25.88
2022-08-17T01:00:47.732Z,27.75
2022-08-17T01:03:34.950Z,23.70
2022-08-17T01:06:22.859Z,24.27
2022-08-17T01:09:09.036Z,22.75
2022-08-17T01:11:54.422Z,29.30
2022-08-17T01:14:40.325Z,24.90
2022-08-17T01:17:27.494Z,25.50
2022-08-17T01:20:13.296Z,26.42
2022-08-17T01:23:01.213Z,26.02
2022-08-17T01:25:48.730Z,23.48
2022-08-17T01:28:53.133Z,25.13
2022-08-17T01:31:51.183Z,26.80
2022-08-17T01:34:43.796Z,25.33
2022-08-17T01:37:40.228Z,26.35
2022-08-17T01:40:39.349Z,24.25
2022-08-17T01:43:32.857Z,23.88
2022-08-17T01:46:30.986Z,26.50
2022-08-17T01:49:16.521Z,24.27
2022-08-17T01:52:10.816Z,25.10
2022-08-17T01:54:56.722Z,24.85
2022-08-17T01:57:45.436Z,25.23
2022-08-17T02:00:59.571Z,25.48
2022-08-17T02:03:37.933Z,23.77
2022-08-17T02:06:27.696Z,25.90
2022-08-17T02:09:16.954Z,22.45
2022-08-17T02:12:47.940Z,27.08
2022-08-17T02:15:12.453Z,26.95
2022-08-17T02:17:58.115Z,25.48
2022-08-17T02:20:43.367Z,25.55
2022-08-17T02:23:32.032Z,23.13
2022-08-17T02:26:25.768Z,26.17
2022-08-17T02:29:14.558Z,22.73
2022-08-17T02:32:01.832Z,24.75
2022-08-17T02:34:47.384Z,27.50
2022-08-17T02:37:33.739Z,23.17
2022-08-17T02:40:36.476Z,22.85
2022-08-17T02:43:22.023Z,22.98
2022-08-17T02:46:07.567Z,27.75
2022-08-17T02:48:53.071Z,26.48
2022-08-17T02:51:38.506Z,23.17
2022-08-17T02:54:39.405Z,23.33
2022-08-17T02:57:27.331Z,24.52
2022-08-17T03:00:21.275Z,23.55
2022-08-17T03:03:07.092Z,24.90
2022-08-17T03:05:53.243Z,22.85
2022-08-17T03:08:38.551Z,23.13
2022-08-17T03:11:23.635Z,21.70
2022-08-17T03:14:09.238Z,22.30
2022-08-17T03:16:54.776Z,21.95
2022-08-17T03:19:43.025Z,22.50
2022-08-17T03:22:36.657Z,22.38
2022-08-17T03:25:37.879Z,23.92
2022-08-17T03:28:25.155Z,22.08
2022-08-17T03:31:10.432Z,23.08
2022-08-17T03:33:56.489Z,22.20
2022-08-17T03:36:42.147Z,24.52
2022-08-17T03:39:27.385Z,25.10
2022-08-17T03:42:32.301Z,30.17
2022-08-17T03:45:42.867Z,28.73
2022-08-17T03:48:47.739Z,33.50
2022-08-17T03:51:51.724Z,26.40
2022-08-17T03:54:56.091Z,23.80
2022-08-17T03:57:41.567Z,24.13
2022-08-17T04:00:27.783Z,24.73
2022-08-17T04:03:14.843Z,23.00
2022-08-17T04:06:02.234Z,24.17
2022-08-17T04:08:47.471Z,26.65
2022-08-17T04:11:33.780Z,25.27
2022-08-17T04:14:19.758Z,21.92
2022-08-17T04:17:05.898Z,20.92
2022-08-17T04:19:51.729Z,25.90
2022-08-17T04:22:37.337Z,25.67
2022-08-17T04:25:23.392Z,25.58
2022-08-17T04:28:15.586Z,23.88
2022-08-17T04:33:47.203Z,22.95
2022-08-17T04:36:32.898Z,25.67
2022-08-17T04:39:18.267Z,22.05
2022-08-17T04:42:16.902Z,28.17
2022-08-17T04:45:04.630Z,22.77
2022-08-17T04:47:49.800Z,25.73
2022-08-17T04:50:37.033Z,21.67
2022-08-17T04:53:22.912Z,24.27
2022-08-17T04:56:11.747Z,26.77
2022-08-17T04:59:05.350Z,25.15
2022-08-17T05:01:52.471Z,25.75
2022-08-17T05:04:41.733Z,25.63
2022-08-17T05:07:31.300Z,28.77
2022-08-17T05:10:17.312Z,25.95
2022-08-17T05:13:12.424Z,22.55
2022-08-17T05:16:00.931Z,24.10
2022-08-17T05:18:46.536Z,28.75
2022-08-17T05:21:32.233Z,24.13
2022-08-17T05:24:42.578Z,24.35
2022-08-17T05:27:23.612Z,29.73
2022-08-17T05:30:09.209Z,24.83
2022-08-17T05:33:01.499Z,29.27
2022-08-17T05:35:49.505Z,24.55
2022-08-17T05:38:35.750Z,33.50
2022-08-17T05:41:21.172Z,30.48
2022-08-17T05:44:06.640Z,30.88
2022-08-17T05:46:53.223Z,32.50
2022-08-17T05:49:38.685Z,31.83
2022-08-17T05:52:47.209Z,32.85
2022-08-17T05:56:09.926Z,31.38
2022-08-17T05:59:35.052Z,36.90
2022-08-17T06:02:48.538Z,35.70
2022-08-17T06:05:40.166Z,35.42
2022-08-17T06:09:26.636Z,34.40
2022-08-17T06:12:34.802Z,32.05
2022-08-17T06:15:38.458Z,31.23
2022-08-17T06:18:28.733Z,31.67
2022-08-17T06:21:18.876Z,36.70
2022-08-17T06:24:42.004Z,30.35
2022-08-17T06:27:53.475Z,32.90
2022-08-17T06:31:03.245Z,33.35
2022-08-17T06:33:50.246Z,35.90
2022-08-17T06:36:48.282Z,39.97
2022-08-17T06:40:04.492Z,40.97
2022-08-17T06:43:32.592Z,41.33
2022-08-17T06:46:29.196Z,47.67
2022-08-17T06:49:28.601Z,45.72
2022-08-17T06:52:46.026Z,54.55
2022-08-17T06:55:45.624Z,51.65
2022-08-17T06:58:33.267Z,50.90
2022-08-17T07:01:24.916Z,56.55
2022-08-17T07:04:21.543Z,61.30
2022-08-17T07:07:28.492Z,58.80
2022-08-17T07:10:14.460Z,56.72
2022-08-17T07:13:14.122Z,60.30
2022-08-17T07:16:11.016Z,65.18
2022-08-17T07:18:58.893Z,66.10
2022-08-17T07:22:09.544Z,66.60
2022-08-17T07:25:02.353Z,68.47
2022-08-17T07:27:51.412Z,65.03
2022-08-17T07:30:47.479Z,58.17
2022-08-17T07:33:36.816Z,67.00
2022-08-17T07:36:29.958Z,65.68
2022-08-17T07:39:26.933Z,65.53
2022-08-17T07:42:12.618Z,64.88
2022-08-17T07:45:20.568Z,58.55
2022-08-17T07:48:19.487Z,70.22
2022-08-17T07:51:40.222Z,61.22
2022-08-17T07:54:42.527Z,57.85
2022-08-17T07:57:34.333Z,56.47
2022-08-17T08:00:30.822Z,55.53
2022-08-17T08:03:26.233Z,57.40
2022-08-17T08:06:22.705Z,56.72
2022-08-17T08:09:08.416Z,67.65
2022-08-17T08:11:53.618Z,65.05
2022-08-17T08:14:39.746Z,73.32
2022-08-17T08:17:45.048Z,65.15
2022-08-17T08:20:53.366Z,61.92
2022-08-17T08:23:47.972Z,64.10
2022-08-17T08:26:53.943Z,60.33
2022-08-17T08:30:04.930Z,69.22
2022-08-17T08:33:17.646Z,64.63
2022-08-17T08:37:13.054Z,64.60
2022-08-17T08:40:34.756Z,61.60
2022-08-17T08:43:36.248Z,68.97
2022-08-17T08:46:24.903Z,63.33
2022-08-17T08:50:01.875Z,70.55
2022-08-17T08:53:42.177Z,62.25
2022-08-17T08:56:33.038Z,67.70
2022-08-17T08:59:45.446Z,60.92
2022-08-17T09:02:52.218Z,65.72
2022-08-17T09:06:00.340Z,68.22
2022-08-17T09:09:13.727Z,62.03
2022-08-17T09:12:30.099Z,57.22
2022-08-17T09:15:27.681Z,52.47
2022-08-17T09:18:59.924Z,55.70
2022-08-17T09:21:54.804Z,49.28
2022-08-17T09:24:46.249Z,47.85
2022-08-17T09:27:38.461Z,50.28
2022-08-17T09:30:25.302Z,44.55
2022-08-17T09:33:14.064Z,41.67
2022-08-17T09:36:21.749Z,38.80
2022-08-17T09:39:20.132Z,40.25
2022-08-17T09:42:14.684Z,38.28
2022-08-17T09:45:50.721Z,34.92
2022-08-17T09:48:56.445Z,34.67
2022-08-17T09:51:44.983Z,35.65
2022-08-17T09:54:39.673Z,36.47
2022-08-17T09:58:01.455Z,34.17
2022-08-17T10:00:57.680Z,38.28
2022-08-17T10:04:02.729Z,38.25
2022-08-17T10:07:02.107Z,37.28
2022-08-17T10:09:56.564Z,32.42
2022-08-17T10:12:47.150Z,33.53
2022-08-17T10:16:09.890Z,31.67
2022-08-17T10:19:24.185Z,28.83
2022-08-17T10:22:57.696Z,26.42
2022-08-17T10:29:16.869Z,25.48
2022-08-17T10:32:09.151Z,24.45
2022-08-17T10:35:25.648Z,25.95
2022-08-17T10:38:16.975Z,24.80
2022-08-17T10:41:40.573Z,26.77
2022-08-17T10:44:44.586Z,28.17
2022-08-17T10:47:56.125Z,22.98
2022-08-17T10:50:42.640Z,21.10
2022-08-17T10:53:40.620Z,27.50
2022-08-17T10:56:41.432Z,25.00
2022-08-17T10:59:36.009Z,24.83
2022-08-17T11:02:27.456Z,25.45
2022-08-17T11:05:43.962Z,25.58
2022-08-17T11:08:58.065Z,24.30
2022-08-17T11:11:55.464Z,25.25
2022-08-17T11:14:41.205Z,25.92
2022-08-17T11:17:30.128Z,24.70
2022-08-17T11:20:57.835Z,21.70
2022-08-17T11:24:18.382Z,23.38
2022-08-17T11:27:18.524Z,26.27
2022-08-17T11:30:44.513Z,18.70
2022-08-17T11:33:34.134Z,19.30
2022-08-17T11:36:34.550Z,18.43
2022-08-17T11:39:44.571Z,26.02
2022-08-17T11:42:47.446Z,20.52
2022-08-17T11:46:02.104Z,19.45
2022-08-17T11:49:31.666Z,17.10
2022-08-17T11:52:47.123Z,24.48
2022-08-17T11:55:39.582Z,18.63
2022-08-17T11:58:34.173Z,19.35
2022-08-17T12:04:19.277Z,20.23
2022-08-17T12:07:17.011Z,22.67
2022-08-17T12:10:04.710Z,21.20
2022-08-17T12:12:53.265Z,20.33
2022-08-17T12:15:48.669Z,21.73
2022-08-17T12:18:37.527Z,23.80
2022-08-17T12:21:37.961Z,20.33
2022-08-17T12:24:47.190Z,22.75
2022-08-17T12:27:46.174Z,20.90
2022-08-17T12:30:50.056Z,23.55
2022-08-17T12:33:43.656Z,22.90
2022-08-17T12:36:30.609Z,19.75
2022-08-17T12:39:24.896Z,25.42
2022-08-17T12:42:23.283Z,22.77
2022-08-17T12:45:23.507Z,19.67
2022-08-17T12:48:13.185Z,23.42
2022-08-17T12:51:01.559Z,21.80
2022-08-17T12:53:54.812Z,21.35
2022-08-17T12:56:40.762Z,17.25
2022-08-17T12:59:30.394Z,19.83
2022-08-17T13:02:52.540Z,19.70
2022-08-17T13:05:41.764Z,22.15
2022-08-17T13:08:32.851Z,16.25
2022-08-17T13:11:24.849Z,19.55
2022-08-17T13:14:10.886Z,18.50
2022-08-17T13:17:01.779Z,18.90
2022-08-17T13:19:50.868Z,21.35
2022-08-17T13:22:36.866Z,18.80
2022-08-17T13:25:23.034Z,19.02
2022-08-17T13:28:18.979Z,20.30
2022-08-17T13:31:39.433Z,19.70
2022-08-17T13:35:12.922Z,21.80
2022-08-17T13:38:12.411Z,21.25
2022-08-17T13:40:58.012Z,22.23
2022-08-17T13:43:48.506Z,19.38
2022-08-17T13:46:33.990Z,21.45
2022-08-17T13:49:21.337Z,20.98
2022-08-17T13:52:13.988Z,20.73
2022-08-17T13:55:07.589Z,21.67
2022-08-17T13:58:07.126Z,18.52
2022-08-17T14:00:53.144Z,18.70
2022-08-17T14:03:38.460Z,16.83
2022-08-17T14:06:53.208Z,15.45
2022-08-17T14:09:46.852Z,14.15
2022-08-17T14:12:34.723Z,16.92
2022-08-17T14:15:24.824Z,13.75
2022-08-17T14:18:49.821Z,13.30
2022-08-17T14:21:38.226Z,10.63
2022-08-17T14:24:30.207Z,11.55
2022-08-17T14:27:17.987Z,14.10
2022-08-17T14:30:06.362Z,9.52
2022-08-17T14:32:52.564Z,9.95
2022-08-17T14:35:38.360Z,9.15
2022-08-17T14:38:23.919Z,10.43
2022-08-17T14:41:09.925Z,11.15
2022-08-17T14:43:55.207Z,10.05
2022-08-17T14:46:41.881Z,10.60
2022-08-17T14:49:31.380Z,9.32
2022-08-17T14:52:22.046Z,9.85
2022-08-17T14:55:08.648Z,8.98
2022-08-17T14:57:53.876Z,9.88
2022-08-17T15:00:41.298Z,8.35
2022-08-17T15:03:26.969Z,7.20
2022-08-17T15:06:14.631Z,14.60
2022-08-17T15:09:02.310Z,19.20
2022-08-17T15:11:47.931Z,17.60
2022-08-17T15:14:35.444Z,18.98
2022-08-17T15:17:21.060Z,19.48
2022-08-17T15:20:14.212Z,20.30
2022-08-17T15:23:00.601Z,18.30
2022-08-17T15:25:47.784Z,22.10
2022-08-17T15:28:33.070Z,20.83
2022-08-17T15:31:18.576Z,20.15
2022-08-17T15:34:17.810Z,19.33
2022-08-17T15:37:03.685Z,19.30
2022-08-17T15:39:49.516Z,15.77
2022-08-17T15:42:35.673Z,14.68
2022-08-17T15:45:24.845Z,14.07
2022-08-17T15:48:10.778Z,15.70
2022-08-17T15:50:56.122Z,13.73
2022-08-17T15:53:43.912Z,15.52
2022-08-17T15:56:31.275Z,18.20
2022-08-17T15:59:16.658Z,17.58
2022-08-17T16:03:13.614Z,15.65
2022-08-17T16:05:21.964Z,14.45
2022-08-17T16:08:11.134Z,12.13
2022-08-17T16:10:59.524Z,12.68
2022-08-17T16:13:47.388Z,10.20
2022-08-17T16:16:40.316Z,11.02
2022-08-17T16:19:25.614Z,12.10
2022-08-17T16:22:12.618Z,9.23
2022-08-17T16:24:59.043Z,8.40
2022-08-17T16:27:46.040Z,7.90
2022-08-17T16:30:31.957Z,9.15
2022-08-17T16:33:18.584Z,9.93
2022-08-17T16:36:04.268Z,8.57
2022-08-17T16:38:49.745Z,7.82
2022-08-17T16:41:45.033Z,6.85
2022-08-17T16:44:32.091Z,7.85
2022-08-17T16:47:19.386Z,8.85
2022-08-17T16:50:07.049Z,9.30
2022-08-17T16:52:52.671Z,9.25
2022-08-17T16:55:38.836Z,9.48
2022-08-17T16:58:24.427Z,10.20
2022-08-17T17:01:10.063Z,10.85
2022-08-17T17:03:59.599Z,8.77
2022-08-17T17:07:06.252Z,10.48
2022-08-17T17:09:55.359Z,9.32
2022-08-17T17:13:03.015Z,9.88
2022-08-17T17:16:11.509Z,9.77
2022-08-17T17:19:16.222Z,12.80
2022-08-17T17:22:26.760Z,9.27
2022-08-17T17:25:27.855Z,10.57
2022-08-17T17:28:24.965Z,9.60
2022-08-17T17:31:17.975Z,13.27
2022-08-17T17:34:07.738Z,11.70
2022-08-17T17:36:58.059Z,12.85
2022-08-17T17:39:51.960Z,12.38
2022-08-17T17:42:40.520Z,12.63
2022-08-17T17:45:32.398Z,13.70
2022-08-17T17:48:18.128Z,11.73
2022-08-17T17:52:05.296Z,13.43
2022-08-17T17:54:58.218Z,12.13
2022-08-17T17:57:55.758Z,15.30
2022-08-17T18:00:44.541Z,12.50
2022-08-17T18:04:01.523Z,14.18
2022-08-17T18:07:10.114Z,14.52
2022-08-17T18:10:02.795Z,13.55
2022-08-17T18:13:17.751Z,15.73
2022-08-17T18:16:06.098Z,13.32
2022-08-17T18:18:52.604Z,13.75
2022-08-17T18:21:46.442Z,15.07
2022-08-17T18:24:37.980Z,13.90
2022-08-17T18:27:34.551Z,14.38
2022-08-17T18:30:20.034Z,14.73
2022-08-17T18:33:22.293Z,13.48
2022-08-17T18:36:08.838Z,13.77
2022-08-17T18:39:10.238Z,14.88
2022-08-17T18:41:58.502Z,12.82
2022-08-17T18:44:44.989Z,15.32
2022-08-17T18:47:30.718Z,16.88
2022-08-17T18:50:27.316Z,16.02
2022-08-17T18:53:40.838Z,16.65
2022-08-17T18:59:24.227Z,18.40
2022-08-17T19:02:29.713Z,18.13
2022-08-17T19:05:43.196Z,17.20
2022-08-17T19:08:28.559Z,18.95
2022-08-17T19:11:20.770Z,16.77
2022-08-17T19:14:13.609Z,19.23
2022-08-17T19:17:10.120Z,16.90
2022-08-17T19:20:22.665Z,18.50
2022-08-17T19:23:26.368Z,15.90
2022-08-17T19:26:51.266Z,15.57
2022-08-17T19:29:43.066Z,15.30
2022-08-17T19:32:34.670Z,14.52
2022-08-17T19:35:23.596Z,15.32
2022-08-17T19:38:20.872Z,13.43
2022-08-17T19:41:13.409Z,15.07
2022-08-17T19:44:37.812Z,13.48
2022-08-17T19:47:54.789Z,13.48
2022-08-17T19:51:03.276Z,15.98
2022-08-17T19:54:06.355Z,14.82
2022-08-17T19:57:01.713Z,15.45
2022-08-17T20:00:02.785Z,16.08
2022-08-17T20:03:05.909Z,14.80
2022-08-17T20:06:13.851Z,13.38
2022-08-17T20:09:15.178Z,13.88
2022-08-17T20:12:11.699Z,13.23
2022-08-17T20:15:09.866Z,14.88
2022-08-17T20:17:59.963Z,16.70
2022-08-17T20:20:58.852Z,14.18
2022-08-17T20:23:57.232Z,14.55
2022-08-17T20:26:59.331Z,15.23
2022-08-17T20:29:59.138Z,14.48
2022-08-17T20:32:57.126Z,19.17
2022-08-17T20:36:11.727Z,13.38
2022-08-17T20:38:59.197Z,15.30
2022-08-17T20:42:06.109Z,16.92
2022-08-17T20:44:59.467Z,16.70
2022-08-17T20:48:07.736Z,15.82
2022-08-17T20:51:00.679Z,16.92
2022-08-17T20:53:54.810Z,16.23
2022-08-17T20:56:44.420Z,16.40
2022-08-17T20:59:51.153Z,16.33
2022-08-17T21:02:37.490Z,15.85
2022-08-17T21:05:59.889Z,16.35
2022-08-17T21:08:58.668Z,22.65
2022-08-17T21:12:04.963Z,19.58
2022-08-17T21:15:03.704Z,18.33
2022-08-17T21:17:59.088Z,20.33
2022-08-17T21:21:20.280Z,23.00
2022-08-17T21:24:32.653Z,19.63
2022-08-17T21:27:30.233Z,21.13
2022-08-17T21:30:29.096Z,20.33
2022-08-17T21:33:18.540Z,18.92
2022-08-17T21:36:12.027Z,24.27
2022-08-17T21:39:08.678Z,18.27
2022-08-17T21:41:57.312Z,17.80
2022-08-17T21:44:50.378Z,18.40
2022-08-17T21:47:43.511Z,17.38
2022-08-17T21:53:30.657Z,20.35
2022-08-17T21:56:46.602Z,17.25
2022-08-17T21:59:44.220Z,17.70
2022-08-17T22:02:36.457Z,19.75
2022-08-17T22:05:42.631Z,15.32
2022-08-17T22:08:28.483Z,17.95
2022-08-17T22:11:14.599Z,17.95
2022-08-17T22:14:05.933Z,16.33
2022-08-17T22:17:15.971Z,20.63
2022-08-17T22:20:14.635Z,19.30
2022-08-17T22:23:18.634Z,19.63
2022-08-17T22:26:09.667Z,18.40
2022-08-17T22:28:59.044Z,18.73
2022-08-17T22:31:56.322Z,17.48
2022-08-17T22:34:41.595Z,18.75
2022-08-17T22:37:29.156Z,20.92
2022-08-17T22:40:26.664Z,20.13
2022-08-17T22:43:13.442Z,17.42
2022-08-17T22:46:00.275Z,16.33
2022-08-17T22:48:52.494Z,17.92
2022-08-17T22:51:42.831Z,18.25
2022-08-17T22:54:48.045Z,21.38
2022-08-17T22:57:54.651Z,17.63
2022-08-17T23:00:46.479Z,18.33
2022-08-17T23:03:31.771Z,18.20
2022-08-17T23:06:17.415Z,22.52
2022-08-17T23:09:05.864Z,18.27
2022-08-17T23:11:58.939Z,19.70
2022-08-17T23:17:37.118Z,19.20
2022-08-17T23:20:23.241Z,16.65
2022-08-17T23:23:10.138Z,19.08
2022-08-17T23:25:55.799Z,16.92
2022-08-17T23:28:43.699Z,18.73
2022-08-17T23:31:32.959Z,15.77
2022-08-17T23:34:19.141Z,18.35
2022-08-17T23:37:05.272Z,17.92
2022-08-17T23:39:50.764Z,15.48
2022-08-17T23:42:39.848Z,17.52
2022-08-17T23:45:28.803Z,14.88
2022-08-17T23:48:14.298Z,16.40
2022-08-17T23:51:20.939Z,13.07
2022-08-17T23:54:15.231Z,15.97
2022-08-17T23:57:04.867Z,15.35
2022-08-17T23:59:50.548Z,17.02
